sensor_id;sensor_type;location;lat;lon;timestamp;P1;durP1;ratioP1;P2;durP2;ratioP2
52380;SDS011;38310;52.796;6.942;2023-07-24T00:01:20;9.27;;;7.35;;
52380;SDS011;38310;52.796;6.942;2023-07-24T00:03:45;11.05;;;8.80;;
52380;SDS011;38310;52.796;6.942;2023-07-24T00:06:11;11.95;;;7.55;;
52380;SDS011;38310;52.796;6.942;2023-07-24T00:08:37;12.38;;;9.68;;
52380;SDS011;38310;52.796;6.942;2023-07-24T00:11:06;14.25;;;9.18;;
52380;SDS011;38310;52.796;6.942;2023-07-24T00:13:32;11.02;;;9.05;;
52380;SDS011;38310;52.796;6.942;2023-07-24T00:15:58;12.13;;;9.63;;
52380;SDS011;38310;52.796;6.942;2023-07-24T00:18:24;12.45;;;8.98;;
52380;SDS011;38310;52.796;6.942;2023-07-24T00:20:50;11.48;;;9.13;;
52380;SDS011;38310;52.796;6.942;2023-07-24T00:23:15;12.48;;;10.40;;
52380;SDS011;38310;52.796;6.942;2023-07-24T00:25:41;14.95;;;10.70;;
52380;SDS011;38310;52.796;6.942;2023-07-24T00:28:07;12.63;;;10.38;;
52380;SDS011;38310;52.796;6.942;2023-07-24T00:30:32;13.55;;;10.55;;
52380;SDS011;38310;52.796;6.942;2023-07-24T00:32:58;13.18;;;10.05;;
52380;SDS011;38310;52.796;6.942;2023-07-24T00:35:25;14.10;;;11.07;;
52380;SDS011;38310;52.796;6.942;2023-07-24T00:37:51;14.30;;;11.27;;
52380;SDS011;38310;52.796;6.942;2023-07-24T00:40:17;13.38;;;10.40;;
52380;SDS011;38310;52.796;6.942;2023-07-24T00:42:46;12.45;;;10.10;;
52380;SDS011;38310;52.796;6.942;2023-07-24T00:45:12;13.52;;;10.90;;
52380;SDS011;38310;52.796;6.942;2023-07-24T00:47:39;13.07;;;10.02;;
52380;SDS011;38310;52.796;6.942;2023-07-24T00:50:05;14.52;;;10.95;;
52380;SDS011;38310;52.796;6.942;2023-07-24T00:52:32;13.55;;;10.20;;
52380;SDS011;38310;52.796;6.942;2023-07-24T00:54:58;13.68;;;10.20;;
52380;SDS011;38310;52.796;6.942;2023-07-24T00:57:24;13.73;;;11.02;;
52380;SDS011;38310;52.796;6.942;2023-07-24T00:59:50;12.48;;;10.65;;
52380;SDS011;38310;52.796;6.942;2023-07-24T01:02:16;13.38;;;10.43;;
52380;SDS011;38310;52.796;6.942;2023-07-24T01:04:42;13.30;;;10.43;;
52380;SDS011;38310;52.796;6.942;2023-07-24T01:07:08;15.93;;;10.93;;
52380;SDS011;38310;52.796;6.942;2023-07-24T01:09:34;13.00;;;10.95;;
52380;SDS011;38310;52.796;6.942;2023-07-24T01:12:04;12.77;;;10.73;;
52380;SDS011;38310;52.796;6.942;2023-07-24T01:17:12;16.40;;;10.30;;
52380;SDS011;38310;52.796;6.942;2023-07-24T01:19:46;14.25;;;11.50;;
52380;SDS011;38310;52.796;6.942;2023-07-24T01:27:30;15.05;;;10.70;;
52380;SDS011;38310;52.796;6.942;2023-07-24T01:29:55;13.85;;;10.23;;
52380;SDS011;38310;52.796;6.942;2023-07-24T01:32:21;13.15;;;10.90;;
52380;SDS011;38310;52.796;6.942;2023-07-24T01:34:47;14.00;;;9.43;;
52380;SDS011;38310;52.796;6.942;2023-07-24T01:37:13;12.23;;;9.60;;
52380;SDS011;38310;52.796;6.942;2023-07-24T01:39:40;11.50;;;9.50;;
52380;SDS011;38310;52.796;6.942;2023-07-24T01:42:08;12.07;;;10.13;;
52380;SDS011;38310;52.796;6.942;2023-07-24T01:44:34;11.55;;;9.38;;
52380;SDS011;38310;52.796;6.942;2023-07-24T01:47:00;11.57;;;9.15;;
52380;SDS011;38310;52.796;6.942;2023-07-24T01:49:26;11.18;;;8.85;;
52380;SDS011;38310;52.796;6.942;2023-07-24T01:51:51;12.48;;;8.75;;
52380;SDS011;38310;52.796;6.942;2023-07-24T01:54:17;13.20;;;8.98;;
52380;SDS011;38310;52.796;6.942;2023-07-24T01:56:43;11.50;;;8.82;;
52380;SDS011;38310;52.796;6.942;2023-07-24T01:59:09;11.13;;;9.20;;
52380;SDS011;38310;52.796;6.942;2023-07-24T02:01:34;11.60;;;8.38;;
52380;SDS011;38310;52.796;6.942;2023-07-24T02:04:01;11.98;;;8.98;;
52380;SDS011;38310;52.796;6.942;2023-07-24T02:06:27;13.38;;;10.30;;
52380;SDS011;38310;52.796;6.942;2023-07-24T02:08:52;13.55;;;10.88;;
52380;SDS011;38310;52.796;6.942;2023-07-24T02:11:18;11.13;;;9.60;;
52380;SDS011;38310;52.796;6.942;2023-07-24T02:13:44;12.48;;;10.63;;
52380;SDS011;38310;52.796;6.942;2023-07-24T02:16:10;13.07;;;10.80;;
52380;SDS011;38310;52.796;6.942;2023-07-24T02:18:38;13.63;;;10.38;;
52380;SDS011;38310;52.796;6.942;2023-07-24T02:21:05;12.60;;;10.07;;
52380;SDS011;38310;52.796;6.942;2023-07-24T02:23:31;11.75;;;9.48;;
52380;SDS011;38310;52.796;6.942;2023-07-24T02:25:56;11.18;;;8.95;;
52380;SDS011;38310;52.796;6.942;2023-07-24T02:28:22;11.52;;;9.23;;
52380;SDS011;38310;52.796;6.942;2023-07-24T02:30:48;12.88;;;9.80;;
52380;SDS011;38310;52.796;6.942;2023-07-24T02:33:14;11.55;;;8.48;;
52380;SDS011;38310;52.796;6.942;2023-07-24T02:35:43;11.30;;;9.02;;
52380;SDS011;38310;52.796;6.942;2023-07-24T02:38:09;12.32;;;9.00;;
52380;SDS011;38310;52.796;6.942;2023-07-24T02:40:35;11.75;;;8.85;;
52380;SDS011;38310;52.796;6.942;2023-07-24T02:43:01;13.05;;;8.52;;
52380;SDS011;38310;52.796;6.942;2023-07-24T02:45:27;12.80;;;7.97;;
52380;SDS011;38310;52.796;6.942;2023-07-24T02:47:52;9.93;;;7.43;;
52380;SDS011;38310;52.796;6.942;2023-07-24T02:50:18;12.38;;;8.10;;
52380;SDS011;38310;52.796;6.942;2023-07-24T02:52:44;11.30;;;7.88;;
52380;SDS011;38310;52.796;6.942;2023-07-24T02:55:10;10.35;;;8.45;;
52380;SDS011;38310;52.796;6.942;2023-07-24T02:57:35;10.82;;;8.38;;
52380;SDS011;38310;52.796;6.942;2023-07-24T03:00:01;10.98;;;7.78;;
52380;SDS011;38310;52.796;6.942;2023-07-24T03:02:28;9.65;;;7.47;;
52380;SDS011;38310;52.796;6.942;2023-07-24T03:04:53;12.98;;;8.95;;
52380;SDS011;38310;52.796;6.942;2023-07-24T03:07:19;12.15;;;9.63;;
52380;SDS011;38310;52.796;6.942;2023-07-24T03:09:45;11.82;;;8.18;;
52380;SDS011;38310;52.796;6.942;2023-07-24T03:12:10;11.13;;;7.60;;
52380;SDS011;38310;52.796;6.942;2023-07-24T03:14:36;10.52;;;8.23;;
52380;SDS011;38310;52.796;6.942;2023-07-24T03:17:02;11.40;;;8.18;;
52380;SDS011;38310;52.796;6.942;2023-07-24T03:19:28;11.02;;;8.27;;
52380;SDS011;38310;52.796;6.942;2023-07-24T03:21:54;10.00;;;8.00;;
52380;SDS011;38310;52.796;6.942;2023-07-24T03:24:19;11.70;;;8.80;;
52380;SDS011;38310;52.796;6.942;2023-07-24T03:26:45;12.38;;;9.20;;
52380;SDS011;38310;52.796;6.942;2023-07-24T03:29:11;12.80;;;8.70;;
52380;SDS011;38310;52.796;6.942;2023-07-24T03:31:37;11.68;;;8.75;;
52380;SDS011;38310;52.796;6.942;2023-07-24T03:34:02;12.00;;;8.55;;
52380;SDS011;38310;52.796;6.942;2023-07-24T03:36:28;10.13;;;8.60;;
52380;SDS011;38310;52.796;6.942;2023-07-24T03:38:54;9.55;;;7.88;;
52380;SDS011;38310;52.796;6.942;2023-07-24T03:41:20;11.02;;;8.57;;
52380;SDS011;38310;52.796;6.942;2023-07-24T03:43:45;10.60;;;7.60;;
52380;SDS011;38310;52.796;6.942;2023-07-24T03:46:11;11.57;;;8.20;;
52380;SDS011;38310;52.796;6.942;2023-07-24T03:48:37;9.95;;;7.80;;
52380;SDS011;38310;52.796;6.942;2023-07-24T03:51:02;12.25;;;8.60;;
52380;SDS011;38310;52.796;6.942;2023-07-24T03:53:28;12.30;;;8.50;;
52380;SDS011;38310;52.796;6.942;2023-07-24T03:55:54;10.45;;;8.13;;
52380;SDS011;38310;52.796;6.942;2023-07-24T03:58:20;11.50;;;8.75;;
52380;SDS011;38310;52.796;6.942;2023-07-24T04:00:46;11.57;;;8.88;;
52380;SDS011;38310;52.796;6.942;2023-07-24T04:03:11;12.63;;;9.45;;
52380;SDS011;38310;52.796;6.942;2023-07-24T04:05:37;12.77;;;9.70;;
52380;SDS011;38310;52.796;6.942;2023-07-24T04:08:03;14.00;;;10.88;;
52380;SDS011;38310;52.796;6.942;2023-07-24T04:10:29;13.70;;;10.15;;
52380;SDS011;38310;52.796;6.942;2023-07-24T04:12:56;14.73;;;10.77;;
52380;SDS011;38310;52.796;6.942;2023-07-24T04:15:22;15.30;;;10.15;;
52380;SDS011;38310;52.796;6.942;2023-07-24T04:17:48;14.25;;;11.32;;
52380;SDS011;38310;52.796;6.942;2023-07-24T04:20:14;13.25;;;10.25;;
52380;SDS011;38310;52.796;6.942;2023-07-24T04:22:40;13.77;;;10.90;;
52380;SDS011;38310;52.796;6.942;2023-07-24T04:25:06;15.60;;;11.68;;
52380;SDS011;38310;52.796;6.942;2023-07-24T04:27:32;13.60;;;10.77;;
52380;SDS011;38310;52.796;6.942;2023-07-24T04:29:58;14.05;;;11.02;;
52380;SDS011;38310;52.796;6.942;2023-07-24T04:32:25;14.57;;;11.32;;
52380;SDS011;38310;52.796;6.942;2023-07-24T04:34:52;14.88;;;11.88;;
52380;SDS011;38310;52.796;6.942;2023-07-24T04:37:18;14.10;;;11.30;;
52380;SDS011;38310;52.796;6.942;2023-07-24T04:39:44;14.25;;;11.10;;
52380;SDS011;38310;52.796;6.942;2023-07-24T04:42:10;14.95;;;11.85;;
52380;SDS011;38310;52.796;6.942;2023-07-24T04:44:35;14.52;;;11.38;;
52380;SDS011;38310;52.796;6.942;2023-07-24T04:47:01;12.85;;;10.82;;
52380;SDS011;38310;52.796;6.942;2023-07-24T04:49:30;15.38;;;11.38;;
52380;SDS011;38310;52.796;6.942;2023-07-24T04:51:58;13.65;;;11.50;;
52380;SDS011;38310;52.796;6.942;2023-07-24T04:54:24;15.18;;;11.70;;
52380;SDS011;38310;52.796;6.942;2023-07-24T04:56:50;14.88;;;11.88;;
52380;SDS011;38310;52.796;6.942;2023-07-24T04:59:16;15.30;;;12.45;;
52380;SDS011;38310;52.796;6.942;2023-07-24T05:01:42;15.50;;;11.95;;
52380;SDS011;38310;52.796;6.942;2023-07-24T05:04:08;15.07;;;12.25;;
52380;SDS011;38310;52.796;6.942;2023-07-24T05:06:33;15.57;;;12.70;;
52380;SDS011;38310;52.796;6.942;2023-07-24T05:09:01;15.82;;;12.57;;
52380;SDS011;38310;52.796;6.942;2023-07-24T05:11:27;17.50;;;13.18;;
52380;SDS011;38310;52.796;6.942;2023-07-24T05:13:53;15.80;;;11.90;;
52380;SDS011;38310;52.796;6.942;2023-07-24T05:16:18;16.63;;;13.73;;
52380;SDS011;38310;52.796;6.942;2023-07-24T05:18:44;22.05;;;13.35;;
52380;SDS011;38310;52.796;6.942;2023-07-24T05:21:10;17.40;;;12.75;;
52380;SDS011;38310;52.796;6.942;2023-07-24T05:23:36;16.98;;;13.88;;
52380;SDS011;38310;52.796;6.942;2023-07-24T05:26:02;15.15;;;12.63;;
52380;SDS011;38310;52.796;6.942;2023-07-24T05:28:29;17.95;;;13.93;;
52380;SDS011;38310;52.796;6.942;2023-07-24T05:30:56;17.52;;;13.82;;
52380;SDS011;38310;52.796;6.942;2023-07-24T05:33:26;16.60;;;12.90;;
52380;SDS011;38310;52.796;6.942;2023-07-24T05:35:51;16.45;;;13.07;;
52380;SDS011;38310;52.796;6.942;2023-07-24T05:38:22;15.15;;;12.73;;
52380;SDS011;38310;52.796;6.942;2023-07-24T05:40:53;14.43;;;11.65;;
52380;SDS011;38310;52.796;6.942;2023-07-24T05:43:20;17.98;;;13.27;;
52380;SDS011;38310;52.796;6.942;2023-07-24T05:45:45;16.48;;;13.25;;
52380;SDS011;38310;52.796;6.942;2023-07-24T05:48:11;16.20;;;12.50;;
52380;SDS011;38310;52.796;6.942;2023-07-24T05:50:37;19.45;;;12.95;;
52380;SDS011;38310;52.796;6.942;2023-07-24T05:53:03;18.02;;;13.93;;
52380;SDS011;38310;52.796;6.942;2023-07-24T05:55:28;16.08;;;12.60;;
52380;SDS011;38310;52.796;6.942;2023-07-24T05:57:54;15.18;;;11.95;;
52380;SDS011;38310;52.796;6.942;2023-07-24T06:00:20;13.60;;;10.88;;
52380;SDS011;38310;52.796;6.942;2023-07-24T06:02:46;16.58;;;13.18;;
52380;SDS011;38310;52.796;6.942;2023-07-24T06:05:11;15.25;;;12.43;;
52380;SDS011;38310;52.796;6.942;2023-07-24T06:07:37;16.38;;;11.82;;
52380;SDS011;38310;52.796;6.942;2023-07-24T06:10:03;15.48;;;11.57;;
52380;SDS011;38310;52.796;6.942;2023-07-24T06:12:29;14.75;;;12.15;;
52380;SDS011;38310;52.796;6.942;2023-07-24T06:14:55;16.35;;;12.85;;
52380;SDS011;38310;52.796;6.942;2023-07-24T06:17:20;16.42;;;12.38;;
52380;SDS011;38310;52.796;6.942;2023-07-24T06:19:46;17.50;;;12.35;;
52380;SDS011;38310;52.796;6.942;2023-07-24T06:22:12;15.90;;;11.70;;
52380;SDS011;38310;52.796;6.942;2023-07-24T06:24:37;15.82;;;11.93;;
52380;SDS011;38310;52.796;6.942;2023-07-24T06:27:03;15.35;;;11.80;;
52380;SDS011;38310;52.796;6.942;2023-07-24T06:29:31;14.13;;;11.23;;
52380;SDS011;38310;52.796;6.942;2023-07-24T06:31:57;14.65;;;11.32;;
52380;SDS011;38310;52.796;6.942;2023-07-24T06:34:23;14.98;;;12.13;;
52380;SDS011;38310;52.796;6.942;2023-07-24T06:36:49;15.30;;;11.43;;
52380;SDS011;38310;52.796;6.942;2023-07-24T06:39:15;16.08;;;12.00;;
52380;SDS011;38310;52.796;6.942;2023-07-24T06:41:40;15.02;;;11.57;;
52380;SDS011;38310;52.796;6.942;2023-07-24T06:44:06;14.77;;;11.35;;
52380;SDS011;38310;52.796;6.942;2023-07-24T06:46:32;15.57;;;12.18;;
52380;SDS011;38310;52.796;6.942;2023-07-24T06:48:58;16.05;;;12.35;;
52380;SDS011;38310;52.796;6.942;2023-07-24T06:51:23;15.43;;;11.85;;
52380;SDS011;38310;52.796;6.942;2023-07-24T06:53:49;13.45;;;10.90;;
52380;SDS011;38310;52.796;6.942;2023-07-24T06:56:15;12.80;;;10.77;;
52380;SDS011;38310;52.796;6.942;2023-07-24T06:58:41;13.57;;;11.30;;
52380;SDS011;38310;52.796;6.942;2023-07-24T07:01:07;13.55;;;11.45;;
52380;SDS011;38310;52.796;6.942;2023-07-24T07:03:32;13.15;;;10.52;;
52380;SDS011;38310;52.796;6.942;2023-07-24T07:06:02;15.18;;;11.70;;
52380;SDS011;38310;52.796;6.942;2023-07-24T07:08:31;13.73;;;11.35;;
52380;SDS011;38310;52.796;6.942;2023-07-24T07:10:57;14.80;;;10.88;;
52380;SDS011;38310;52.796;6.942;2023-07-24T07:13:24;13.35;;;11.23;;
52380;SDS011;38310;52.796;6.942;2023-07-24T07:15:49;14.73;;;10.82;;
52380;SDS011;38310;52.796;6.942;2023-07-24T07:18:15;14.40;;;11.27;;
52380;SDS011;38310;52.796;6.942;2023-07-24T07:20:45;20.52;;;12.13;;
52380;SDS011;38310;52.796;6.942;2023-07-24T07:23:13;14.87;;;10.50;;
52380;SDS011;38310;52.796;6.942;2023-07-24T07:25:40;13.20;;;10.35;;
52380;SDS011;38310;52.796;6.942;2023-07-24T07:28:05;14.48;;;11.00;;
52380;SDS011;38310;52.796;6.942;2023-07-24T07:30:31;11.65;;;10.10;;
52380;SDS011;38310;52.796;6.942;2023-07-24T07:32:57;14.32;;;10.73;;
52380;SDS011;38310;52.796;6.942;2023-07-24T07:35:23;15.48;;;11.48;;
52380;SDS011;38310;52.796;6.942;2023-07-24T07:37:48;13.50;;;10.00;;
52380;SDS011;38310;52.796;6.942;2023-07-24T07:40:14;14.65;;;9.88;;
52380;SDS011;38310;52.796;6.942;2023-07-24T07:42:40;11.23;;;9.35;;
52380;SDS011;38310;52.796;6.942;2023-07-24T07:45:06;13.45;;;9.68;;
52380;SDS011;38310;52.796;6.942;2023-07-24T07:47:32;13.40;;;9.75;;
52380;SDS011;38310;52.796;6.942;2023-07-24T07:49:58;13.48;;;10.88;;
52380;SDS011;38310;52.796;6.942;2023-07-24T07:52:24;12.98;;;9.65;;
52380;SDS011;38310;52.796;6.942;2023-07-24T07:54:49;14.60;;;11.13;;
52380;SDS011;38310;52.796;6.942;2023-07-24T07:57:15;14.77;;;10.32;;
52380;SDS011;38310;52.796;6.942;2023-07-24T07:59:41;15.63;;;9.82;;
52380;SDS011;38310;52.796;6.942;2023-07-24T08:02:07;14.18;;;11.18;;
52380;SDS011;38310;52.796;6.942;2023-07-24T08:04:33;13.85;;;11.20;;
52380;SDS011;38310;52.796;6.942;2023-07-24T08:06:59;15.43;;;10.13;;
52380;SDS011;38310;52.796;6.942;2023-07-24T08:09:25;16.73;;;10.20;;
52380;SDS011;38310;52.796;6.942;2023-07-24T08:11:50;13.18;;;10.68;;
52380;SDS011;38310;52.796;6.942;2023-07-24T08:14:17;13.40;;;9.93;;
52380;SDS011;38310;52.796;6.942;2023-07-24T08:16:43;14.05;;;10.25;;
52380;SDS011;38310;52.796;6.942;2023-07-24T08:19:08;14.02;;;10.55;;
52380;SDS011;38310;52.796;6.942;2023-07-24T08:21:34;13.15;;;9.80;;
52380;SDS011;38310;52.796;6.942;2023-07-24T08:24:00;12.73;;;10.18;;
52380;SDS011;38310;52.796;6.942;2023-07-24T08:26:27;15.02;;;9.75;;
52380;SDS011;38310;52.796;6.942;2023-07-24T08:28:53;11.00;;;8.77;;
52380;SDS011;38310;52.796;6.942;2023-07-24T08:31:19;13.90;;;9.35;;
52380;SDS011;38310;52.796;6.942;2023-07-24T08:33:47;15.30;;;9.95;;
52380;SDS011;38310;52.796;6.942;2023-07-24T08:36:13;11.43;;;8.43;;
52380;SDS011;38310;52.796;6.942;2023-07-24T08:38:39;15.20;;;9.13;;
52380;SDS011;38310;52.796;6.942;2023-07-24T08:41:07;15.13;;;9.25;;
52380;SDS011;38310;52.796;6.942;2023-07-24T08:43:34;11.95;;;9.07;;
52380;SDS011;38310;52.796;6.942;2023-07-24T08:46:01;13.15;;;8.52;;
52380;SDS011;38310;52.796;6.942;2023-07-24T08:48:30;11.63;;;8.30;;
52380;SDS011;38310;52.796;6.942;2023-07-24T08:50:59;11.65;;;8.05;;
52380;SDS011;38310;52.796;6.942;2023-07-24T08:53:25;12.75;;;8.35;;
52380;SDS011;38310;52.796;6.942;2023-07-24T08:55:51;11.43;;;8.00;;
52380;SDS011;38310;52.796;6.942;2023-07-24T08:58:19;11.75;;;7.80;;
52380;SDS011;38310;52.796;6.942;2023-07-24T09:00:45;9.85;;;7.22;;
52380;SDS011;38310;52.796;6.942;2023-07-24T09:03:11;10.18;;;7.80;;
52380;SDS011;38310;52.796;6.942;2023-07-24T09:05:37;11.85;;;8.10;;
52380;SDS011;38310;52.796;6.942;2023-07-24T09:08:03;13.65;;;8.00;;
52380;SDS011;38310;52.796;6.942;2023-07-24T09:10:29;12.60;;;8.60;;
52380;SDS011;38310;52.796;6.942;2023-07-24T09:12:55;13.02;;;8.30;;
52380;SDS011;38310;52.796;6.942;2023-07-24T09:15:21;12.38;;;8.27;;
52380;SDS011;38310;52.796;6.942;2023-07-24T09:17:48;13.55;;;8.40;;
52380;SDS011;38310;52.796;6.942;2023-07-24T09:20:14;15.38;;;8.20;;
52380;SDS011;38310;52.796;6.942;2023-07-24T09:22:47;12.35;;;7.85;;
52380;SDS011;38310;52.796;6.942;2023-07-24T09:25:17;11.68;;;8.10;;
52380;SDS011;38310;52.796;6.942;2023-07-24T09:27:43;10.80;;;8.02;;
52380;SDS011;38310;52.796;6.942;2023-07-24T09:30:13;9.75;;;7.68;;
52380;SDS011;38310;52.796;6.942;2023-07-24T09:32:39;10.52;;;7.45;;
52380;SDS011;38310;52.796;6.942;2023-07-24T09:35:27;11.07;;;7.50;;
52380;SDS011;38310;52.796;6.942;2023-07-24T09:40:36;12.02;;;7.90;;
52380;SDS011;38310;52.796;6.942;2023-07-24T09:43:23;11.27;;;7.43;;
52380;SDS011;38310;52.796;6.942;2023-07-24T09:45:50;11.60;;;7.75;;
52380;SDS011;38310;52.796;6.942;2023-07-24T09:48:18;11.35;;;7.15;;
52380;SDS011;38310;52.796;6.942;2023-07-24T09:50:45;9.32;;;6.68;;
52380;SDS011;38310;52.796;6.942;2023-07-24T09:55:58;10.32;;;7.03;;
52380;SDS011;38310;52.796;6.942;2023-07-24T09:58:27;9.80;;;6.85;;
52380;SDS011;38310;52.796;6.942;2023-07-24T10:00:54;12.23;;;6.90;;
52380;SDS011;38310;52.796;6.942;2023-07-24T10:03:21;9.63;;;6.00;;
52380;SDS011;38310;52.796;6.942;2023-07-24T10:05:47;8.15;;;5.90;;
52380;SDS011;38310;52.796;6.942;2023-07-24T10:08:16;9.65;;;6.03;;
52380;SDS011;38310;52.796;6.942;2023-07-24T10:10:43;9.20;;;5.82;;
52380;SDS011;38310;52.796;6.942;2023-07-24T10:13:09;10.70;;;5.88;;
52380;SDS011;38310;52.796;6.942;2023-07-24T10:15:38;11.15;;;6.78;;
52380;SDS011;38310;52.796;6.942;2023-07-24T10:18:05;8.98;;;6.45;;
52380;SDS011;38310;52.796;6.942;2023-07-24T10:20:35;11.80;;;6.47;;
52380;SDS011;38310;52.796;6.942;2023-07-24T10:23:04;11.00;;;6.45;;
52380;SDS011;38310;52.796;6.942;2023-07-24T10:25:33;6.35;;;4.63;;
52380;SDS011;38310;52.796;6.942;2023-07-24T10:28:02;8.35;;;5.60;;
52380;SDS011;38310;52.796;6.942;2023-07-24T10:30:41;8.55;;;5.60;;
52380;SDS011;38310;52.796;6.942;2023-07-24T10:33:17;8.45;;;5.32;;
52380;SDS011;38310;52.796;6.942;2023-07-24T10:35:46;8.40;;;6.00;;
52380;SDS011;38310;52.796;6.942;2023-07-24T10:38:13;9.73;;;5.38;;
52380;SDS011;38310;52.796;6.942;2023-07-24T10:40:41;6.85;;;5.07;;
52380;SDS011;38310;52.796;6.942;2023-07-24T10:43:12;7.10;;;5.43;;
52380;SDS011;38310;52.796;6.942;2023-07-24T10:45:46;9.15;;;5.93;;
52380;SDS011;38310;52.796;6.942;2023-07-24T10:48:14;9.48;;;5.72;;
52380;SDS011;38310;52.796;6.942;2023-07-24T10:50:41;8.90;;;5.18;;
52380;SDS011;38310;52.796;6.942;2023-07-24T10:53:09;7.72;;;5.20;;
52380;SDS011;38310;52.796;6.942;2023-07-24T10:55:36;9.82;;;6.07;;
52380;SDS011;38310;52.796;6.942;2023-07-24T10:58:01;9.23;;;5.63;;
52380;SDS011;38310;52.796;6.942;2023-07-24T11:00:27;11.45;;;6.15;;
52380;SDS011;38310;52.796;6.942;2023-07-24T11:02:54;9.00;;;5.65;;
52380;SDS011;38310;52.796;6.942;2023-07-24T11:05:21;7.97;;;5.95;;
52380;SDS011;38310;52.796;6.942;2023-07-24T11:07:48;9.38;;;5.97;;
52380;SDS011;38310;52.796;6.942;2023-07-24T11:10:20;10.98;;;6.25;;
52380;SDS011;38310;52.796;6.942;2023-07-24T11:12:47;8.50;;;6.93;;
52380;SDS011;38310;52.796;6.942;2023-07-24T11:15:15;9.90;;;5.80;;
52380;SDS011;38310;52.796;6.942;2023-07-24T11:17:41;6.85;;;4.82;;
52380;SDS011;38310;52.796;6.942;2023-07-24T11:20:11;8.40;;;5.97;;
52380;SDS011;38310;52.796;6.942;2023-07-24T11:22:42;9.05;;;5.70;;
52380;SDS011;38310;52.796;6.942;2023-07-24T11:25:11;8.95;;;5.00;;
52380;SDS011;38310;52.796;6.942;2023-07-24T11:27:41;7.65;;;4.78;;
52380;SDS011;38310;52.796;6.942;2023-07-24T11:30:09;5.63;;;4.65;;
52380;SDS011;38310;52.796;6.942;2023-07-24T11:32:38;6.72;;;5.10;;
52380;SDS011;38310;52.796;6.942;2023-07-24T11:35:04;7.10;;;4.65;;
52380;SDS011;38310;52.796;6.942;2023-07-24T11:37:31;8.90;;;4.93;;
52380;SDS011;38310;52.796;6.942;2023-07-24T11:39:57;8.02;;;5.43;;
52380;SDS011;38310;52.796;6.942;2023-07-24T11:42:24;9.65;;;5.30;;
52380;SDS011;38310;52.796;6.942;2023-07-24T11:44:51;7.95;;;5.53;;
52380;SDS011;38310;52.796;6.942;2023-07-24T11:47:17;9.10;;;5.45;;
52380;SDS011;38310;52.796;6.942;2023-07-24T11:49:43;7.65;;;4.95;;
52380;SDS011;38310;52.796;6.942;2023-07-24T11:52:13;7.85;;;4.50;;
52380;SDS011;38310;52.796;6.942;2023-07-24T11:54:39;7.95;;;4.90;;
52380;SDS011;38310;52.796;6.942;2023-07-24T11:57:14;6.90;;;4.55;;
52380;SDS011;38310;52.796;6.942;2023-07-24T11:59:41;9.80;;;4.72;;
52380;SDS011;38310;52.796;6.942;2023-07-24T12:02:09;7.25;;;4.15;;
52380;SDS011;38310;52.796;6.942;2023-07-24T12:04:36;8.05;;;4.53;;
52380;SDS011;38310;52.796;6.942;2023-07-24T12:07:09;7.90;;;5.10;;
52380;SDS011;38310;52.796;6.942;2023-07-24T12:09:35;9.10;;;5.00;;
52380;SDS011;38310;52.796;6.942;2023-07-24T12:12:00;9.40;;;4.57;;
52380;SDS011;38310;52.796;6.942;2023-07-24T12:14:30;6.40;;;4.45;;
52380;SDS011;38310;52.796;6.942;2023-07-24T12:17:00;10.32;;;5.45;;
52380;SDS011;38310;52.796;6.942;2023-07-24T12:19:26;8.70;;;4.72;;
52380;SDS011;38310;52.796;6.942;2023-07-24T12:21:52;6.78;;;4.10;;
52380;SDS011;38310;52.796;6.942;2023-07-24T12:24:18;8.85;;;4.70;;
52380;SDS011;38310;52.796;6.942;2023-07-24T12:26:44;7.18;;;4.55;;
52380;SDS011;38310;52.796;6.942;2023-07-24T12:29:09;6.78;;;4.70;;
52380;SDS011;38310;52.796;6.942;2023-07-24T12:31:35;8.02;;;4.30;;
52380;SDS011;38310;52.796;6.942;2023-07-24T12:34:01;10.23;;;4.78;;
52380;SDS011;38310;52.796;6.942;2023-07-24T12:36:27;9.07;;;5.00;;
52380;SDS011;38310;52.796;6.942;2023-07-24T12:38:52;8.75;;;4.70;;
52380;SDS011;38310;52.796;6.942;2023-07-24T12:41:18;7.13;;;4.88;;
52380;SDS011;38310;52.796;6.942;2023-07-24T12:43:44;8.10;;;4.78;;
52380;SDS011;38310;52.796;6.942;2023-07-24T12:46:10;9.63;;;5.00;;
52380;SDS011;38310;52.796;6.942;2023-07-24T12:48:36;8.35;;;5.43;;
52380;SDS011;38310;52.796;6.942;2023-07-24T12:51:03;13.25;;;5.75;;
52380;SDS011;38310;52.796;6.942;2023-07-24T12:53:29;7.82;;;5.28;;
52380;SDS011;38310;52.796;6.942;2023-07-24T12:55:54;7.78;;;5.10;;
52380;SDS011;38310;52.796;6.942;2023-07-24T12:58:20;9.85;;;5.22;;
52380;SDS011;38310;52.796;6.942;2023-07-24T13:00:46;8.55;;;5.15;;
52380;SDS011;38310;52.796;6.942;2023-07-24T13:03:12;7.20;;;4.80;;
52380;SDS011;38310;52.796;6.942;2023-07-24T13:05:37;9.32;;;5.65;;
52380;SDS011;38310;52.796;6.942;2023-07-24T13:08:04;8.73;;;5.53;;
52380;SDS011;38310;52.796;6.942;2023-07-24T13:10:29;9.80;;;5.47;;
52380;SDS011;38310;52.796;6.942;2023-07-24T13:12:56;9.07;;;5.03;;
52380;SDS011;38310;52.796;6.942;2023-07-24T13:15:21;8.85;;;5.65;;
52380;SDS011;38310;52.796;6.942;2023-07-24T13:17:47;9.35;;;5.43;;
52380;SDS011;38310;52.796;6.942;2023-07-24T13:20:13;7.93;;;5.57;;
52380;SDS011;38310;52.796;6.942;2023-07-24T13:22:39;7.18;;;5.45;;
52380;SDS011;38310;52.796;6.942;2023-07-24T13:25:06;9.48;;;6.43;;
52380;SDS011;38310;52.796;6.942;2023-07-24T13:27:31;7.88;;;5.45;;
52380;SDS011;38310;52.796;6.942;2023-07-24T13:29:58;9.85;;;6.40;;
52380;SDS011;38310;52.796;6.942;2023-07-24T13:32:24;8.57;;;5.60;;
52380;SDS011;38310;52.796;6.942;2023-07-24T13:34:49;8.82;;;5.93;;
52380;SDS011;38310;52.796;6.942;2023-07-24T13:37:15;9.45;;;6.20;;
52380;SDS011;38310;52.796;6.942;2023-07-24T13:39:41;10.43;;;5.90;;
52380;SDS011;38310;52.796;6.942;2023-07-24T13:42:07;9.40;;;5.45;;
52380;SDS011;38310;52.796;6.942;2023-07-24T13:44:33;8.00;;;5.55;;
52380;SDS011;38310;52.796;6.942;2023-07-24T13:46:58;9.57;;;5.18;;
52380;SDS011;38310;52.796;6.942;2023-07-24T13:49:24;8.63;;;5.93;;
52380;SDS011;38310;52.796;6.942;2023-07-24T13:51:50;7.95;;;5.25;;
52380;SDS011;38310;52.796;6.942;2023-07-24T13:54:16;10.80;;;5.75;;
52380;SDS011;38310;52.796;6.942;2023-07-24T13:56:41;10.05;;;4.57;;
52380;SDS011;38310;52.796;6.942;2023-07-24T13:59:07;9.02;;;5.07;;
52380;SDS011;38310;52.796;6.942;2023-07-24T14:01:33;6.00;;;4.43;;
52380;SDS011;38310;52.796;6.942;2023-07-24T14:03:59;10.15;;;5.63;;
52380;SDS011;38310;52.796;6.942;2023-07-24T14:06:25;7.97;;;4.60;;
52380;SDS011;38310;52.796;6.942;2023-07-24T14:08:51;8.27;;;6.13;;
52380;SDS011;38310;52.796;6.942;2023-07-24T14:11:17;11.00;;;6.55;;
52380;SDS011;38310;52.796;6.942;2023-07-24T14:13:43;11.52;;;7.18;;
52380;SDS011;38310;52.796;6.942;2023-07-24T14:16:10;13.77;;;7.40;;
52380;SDS011;38310;52.796;6.942;2023-07-24T14:18:35;8.32;;;6.72;;
52380;SDS011;38310;52.796;6.942;2023-07-24T14:21:02;12.55;;;7.35;;
52380;SDS011;38310;52.796;6.942;2023-07-24T14:23:28;12.30;;;6.85;;
52380;SDS011;38310;52.796;6.942;2023-07-24T14:25:54;11.63;;;7.90;;
52380;SDS011;38310;52.796;6.942;2023-07-24T14:28:19;10.80;;;7.47;;
52380;SDS011;38310;52.796;6.942;2023-07-24T14:30:45;12.73;;;7.55;;
52380;SDS011;38310;52.796;6.942;2023-07-24T14:33:11;10.60;;;8.10;;
52380;SDS011;38310;52.796;6.942;2023-07-24T14:35:36;10.75;;;7.47;;
52380;SDS011;38310;52.796;6.942;2023-07-24T14:38:02;10.95;;;7.68;;
52380;SDS011;38310;52.796;6.942;2023-07-24T14:40:28;11.60;;;8.02;;
52380;SDS011;38310;52.796;6.942;2023-07-24T14:42:54;11.40;;;8.20;;